createdAt,value
2019-04-04T00:01:18.741Z,4.17
2019-04-04T00:03:48.324Z,4.90
2019-04-04T00:06:17.833Z,4.60
2019-04-04T00:08:48.323Z,4.47
2019-04-04T00:11:17.842Z,4.50
2019-04-04T00:13:47.347Z,4.62
2019-04-04T00:16:16.790Z,4.30
2019-04-04T00:18:46.336Z,4.47
2019-04-04T00:21:15.802Z,4.25
2019-04-04T00:23:45.313Z,4.40
2019-04-04T00:26:14.841Z,4.33
2019-04-04T00:28:46.055Z,4.45
2019-04-04T00:31:18.841Z,4.53
2019-04-04T00:33:46.884Z,4.42
2019-04-04T00:36:16.331Z,4.20
2019-04-04T00:38:45.822Z,4.37
2019-04-04T00:41:15.379Z,4.33
2019-04-04T00:43:44.865Z,4.75
2019-04-04T00:46:14.426Z,4.35
2019-04-04T00:48:43.971Z,4.90
2019-04-04T00:51:13.466Z,4.53
2019-04-04T00:53:43.587Z,4.40
2019-04-04T00:56:13.132Z,4.25
2019-04-04T00:58:42.657Z,4.65
2019-04-04T01:01:12.095Z,4.35
2019-04-04T01:03:41.677Z,4.33
2019-04-04T01:06:11.148Z,4.47
2019-04-04T01:08:40.728Z,4.40
2019-04-04T01:11:10.271Z,3.95
2019-04-04T01:13:39.782Z,4.47
2019-04-04T01:16:09.262Z,4.37
2019-04-04T01:18:38.753Z,4.30
2019-04-04T01:21:08.271Z,4.20
2019-04-04T01:23:37.757Z,4.03
2019-04-04T01:26:07.208Z,4.10
2019-04-04T01:28:37.164Z,4.65
2019-04-04T01:31:07.965Z,4.28
2019-04-04T01:33:37.418Z,3.95
2019-04-04T01:36:06.933Z,4.17
2019-04-04T01:38:36.363Z,4.08
2019-04-04T01:41:05.903Z,3.77
2019-04-04T01:43:36.025Z,4.53
2019-04-04T01:46:05.510Z,4.10
2019-04-04T01:48:35.053Z,4.00
2019-04-04T01:51:07.629Z,4.03
2019-04-04T01:53:35.933Z,4.28
2019-04-04T01:56:06.748Z,4.00
2019-04-04T01:58:36.559Z,4.55
2019-04-04T02:01:06.059Z,4.20
2019-04-04T02:03:35.510Z,3.92
2019-04-04T02:06:05.207Z,4.03
2019-04-04T02:08:34.690Z,4.72
2019-04-04T02:11:05.466Z,3.90
2019-04-04T02:13:40.713Z,3.83
2019-04-04T02:16:10.076Z,4.37
2019-04-04T02:18:39.533Z,4.72
2019-04-04T02:21:09.039Z,3.95
2019-04-04T02:23:38.546Z,4.58
2019-04-04T02:26:08.030Z,4.65
2019-04-04T02:28:37.986Z,3.95
2019-04-04T02:31:09.246Z,4.55
2019-04-04T02:33:38.710Z,4.12
2019-04-04T02:36:08.295Z,3.90
2019-04-04T02:38:37.839Z,4.47
2019-04-04T02:41:08.358Z,4.08
2019-04-04T02:43:37.968Z,4.30
2019-04-04T02:46:10.990Z,3.90
2019-04-04T02:48:38.649Z,4.37
2019-04-04T02:51:08.451Z,4.15
2019-04-04T02:53:37.928Z,4.08
2019-04-04T02:56:07.445Z,4.70
2019-04-04T02:58:37.027Z,4.53
2019-04-04T03:01:06.783Z,4.78
2019-04-04T03:03:36.350Z,4.10
2019-04-04T03:06:05.888Z,4.40
2019-04-04T03:08:37.677Z,4.00
2019-04-04T03:11:06.799Z,4.47
2019-04-04T03:13:36.628Z,4.30
2019-04-04T03:16:06.404Z,4.45
2019-04-04T03:18:37.245Z,4.47
2019-04-04T03:21:06.989Z,3.92
2019-04-04T03:23:36.460Z,3.95
2019-04-04T03:26:06.028Z,4.28
2019-04-04T03:28:35.535Z,4.25
2019-04-04T03:31:05.082Z,4.25
2019-04-04T03:33:34.580Z,4.12
2019-04-04T03:36:04.136Z,4.40
2019-04-04T03:38:33.709Z,4.50
2019-04-04T03:41:03.237Z,4.25
2019-04-04T03:43:32.746Z,4.37
2019-04-04T03:46:02.296Z,5.10
2019-04-04T03:48:31.786Z,4.42
2019-04-04T03:51:04.867Z,4.50
2019-04-04T03:53:32.524Z,3.98
2019-04-04T03:56:02.019Z,4.37
2019-04-04T03:58:31.457Z,4.55
2019-04-04T04:01:01.014Z,3.70
2019-04-04T04:03:30.504Z,4.50
2019-04-04T04:06:00.044Z,4.67
2019-04-04T04:08:29.654Z,4.55
2019-04-04T04:10:59.141Z,4.40
2019-04-04T04:13:28.556Z,4.40
2019-04-04T04:16:02.670Z,4.58
2019-04-04T04:18:30.200Z,4.03
2019-04-04T04:20:59.669Z,4.47
2019-04-04T04:23:29.204Z,3.85
2019-04-04T04:26:00.961Z,4.37
2019-04-04T04:28:30.401Z,4.33
2019-04-04T04:30:59.940Z,4.10
2019-04-04T04:33:30.045Z,4.42
2019-04-04T04:35:59.629Z,4.40
2019-04-04T04:38:29.240Z,4.10
2019-04-04T04:40:58.689Z,4.12
2019-04-04T04:43:32.384Z,4.12
2019-04-04T04:45:59.437Z,5.10
2019-04-04T04:48:31.833Z,4.75
2019-04-04T04:51:00.129Z,4.10
2019-04-04T04:53:29.658Z,5.00
2019-04-04T04:56:00.550Z,3.90
2019-04-04T04:58:30.301Z,3.85
2019-04-04T05:00:59.968Z,4.40
2019-04-04T05:03:29.414Z,4.78
2019-04-04T05:06:02.298Z,4.62
2019-04-04T05:08:30.204Z,4.15
2019-04-04T05:10:59.658Z,4.42
2019-04-04T05:13:29.242Z,4.30
2019-04-04T05:15:58.731Z,4.92
2019-04-04T05:18:28.198Z,4.58
2019-04-04T05:21:01.565Z,4.85
2019-04-04T05:23:28.895Z,4.87
2019-04-04T05:26:02.135Z,4.72
2019-04-04T05:28:29.579Z,5.03
2019-04-04T05:30:59.132Z,4.80
2019-04-04T05:33:31.477Z,4.65
2019-04-04T05:35:59.850Z,5.15
2019-04-04T05:38:29.395Z,3.87
2019-04-04T05:40:58.881Z,4.55
2019-04-04T05:43:28.407Z,4.70
2019-04-04T05:45:57.931Z,4.58
2019-04-04T05:48:29.091Z,4.65
2019-04-04T05:50:58.611Z,4.75
2019-04-04T05:53:30.486Z,4.37
2019-04-04T05:56:00.024Z,4.80
2019-04-04T05:58:29.563Z,4.50
2019-04-04T06:01:01.516Z,4.70
2019-04-04T06:03:30.443Z,5.70
2019-04-04T06:06:01.339Z,6.67
2019-04-04T06:08:31.182Z,5.08
2019-04-04T06:11:00.886Z,5.72
2019-04-04T06:13:30.352Z,5.92
2019-04-04T06:15:59.823Z,5.53
2019-04-04T06:18:29.425Z,5.47
2019-04-04T06:20:58.876Z,4.95
2019-04-04T06:23:28.326Z,5.58
2019-04-04T06:25:57.958Z,6.67
2019-04-04T06:28:27.438Z,7.70
2019-04-04T06:30:56.968Z,7.50
2019-04-04T06:33:26.533Z,7.10
2019-04-04T06:35:55.998Z,5.87
2019-04-04T06:38:25.523Z,6.42
2019-04-04T06:40:55.036Z,5.95
2019-04-04T06:43:24.511Z,6.45
2019-04-04T06:45:54.007Z,6.03
2019-04-04T06:48:23.495Z,6.05
2019-04-04T06:50:53.046Z,5.85
2019-04-04T06:53:22.856Z,6.22
2019-04-04T06:55:52.372Z,6.47
2019-04-04T06:58:21.917Z,5.97
2019-04-04T07:00:51.421Z,6.22
2019-04-04T07:03:20.961Z,5.92
2019-04-04T07:05:50.443Z,6.42
2019-04-04T07:08:20.017Z,6.67
2019-04-04T07:10:57.799Z,5.60
2019-04-04T07:13:22.431Z,5.92
2019-04-04T07:16:06.042Z,5.80
2019-04-04T07:18:23.285Z,6.37
2019-04-04T07:20:52.756Z,6.17
2019-04-04T07:23:22.338Z,6.87
2019-04-04T07:25:53.410Z,6.47
2019-04-04T07:28:23.199Z,5.72
2019-04-04T07:30:54.617Z,5.55
2019-04-04T07:33:24.117Z,6.12
2019-04-04T07:35:53.709Z,5.30
2019-04-04T07:38:23.333Z,5.58
2019-04-04T07:40:52.774Z,5.72
2019-04-04T07:43:22.277Z,5.95
2019-04-04T07:45:51.806Z,5.28
2019-04-04T07:48:21.312Z,5.33
2019-04-04T07:50:51.527Z,4.92
2019-04-04T07:53:21.136Z,5.37
2019-04-04T07:55:50.626Z,5.03
2019-04-04T07:58:20.180Z,5.08
2019-04-04T08:00:49.788Z,4.97
2019-04-04T08:03:19.309Z,5.20
2019-04-04T08:05:48.791Z,4.70
2019-04-04T08:08:18.371Z,4.58
2019-04-04T08:10:47.875Z,4.95
2019-04-04T08:13:17.451Z,4.40
2019-04-04T08:15:47.115Z,4.75
2019-04-04T08:18:16.684Z,4.62
2019-04-04T08:20:47.220Z,4.85
2019-04-04T08:23:16.831Z,4.20
2019-04-04T08:25:46.450Z,5.00
2019-04-04T08:28:15.953Z,4.67
2019-04-04T08:30:45.708Z,4.83
2019-04-04T08:33:15.187Z,4.75
2019-04-04T08:35:44.744Z,4.28
2019-04-04T08:38:14.334Z,3.98
2019-04-04T08:40:46.417Z,4.83
2019-04-04T08:43:15.876Z,4.08
2019-04-04T08:45:45.460Z,4.72
2019-04-04T08:48:14.947Z,4.17
2019-04-04T08:50:44.482Z,4.35
2019-04-04T08:53:13.989Z,4.42
2019-04-04T08:55:43.561Z,4.75
2019-04-04T08:58:13.073Z,4.67
2019-04-04T09:00:42.963Z,4.55
2019-04-04T09:03:12.524Z,4.53
2019-04-04T09:05:42.157Z,4.37
2019-04-04T09:08:11.689Z,4.45
2019-04-04T09:10:41.167Z,4.95
2019-04-04T09:13:10.747Z,4.15
2019-04-04T09:15:40.230Z,4.65
2019-04-04T09:18:09.740Z,4.30
2019-04-04T09:20:39.267Z,4.40
2019-04-04T09:23:08.778Z,4.55
2019-04-04T09:25:40.728Z,4.65
2019-04-04T09:28:09.530Z,4.50
2019-04-04T09:30:39.074Z,4.12
2019-04-04T09:33:08.524Z,4.42
2019-04-04T09:35:37.991Z,4.45
2019-04-04T09:38:07.531Z,4.75
2019-04-04T09:40:37.028Z,4.60
2019-04-04T09:43:06.509Z,4.05
2019-04-04T09:45:36.126Z,3.80
2019-04-04T09:48:05.852Z,4.50
2019-04-04T09:50:35.306Z,4.22
2019-04-04T09:53:04.901Z,4.25
2019-04-04T09:55:34.339Z,4.62
2019-04-04T09:58:03.871Z,4.20
2019-04-04T10:00:33.355Z,4.35
2019-04-04T10:03:02.843Z,4.70
2019-04-04T10:05:32.309Z,4.78
2019-04-04T10:08:01.927Z,5.00
2019-04-04T10:10:31.399Z,4.62
2019-04-04T10:13:00.957Z,4.95
2019-04-04T10:15:30.524Z,5.12
2019-04-04T10:18:00.025Z,4.72
2019-04-04T10:20:29.496Z,4.37
2019-04-04T10:22:59.072Z,4.55
2019-04-04T10:25:28.542Z,4.05
2019-04-04T10:27:58.022Z,5.03
2019-04-04T10:30:27.511Z,4.87
2019-04-04T10:32:57.089Z,4.20
2019-04-04T10:35:26.584Z,4.33
2019-04-04T10:37:56.137Z,4.37
2019-04-04T10:40:25.599Z,4.50
2019-04-04T10:42:55.065Z,4.25
2019-04-04T10:45:24.625Z,4.58
2019-04-04T10:47:54.149Z,4.60
2019-04-04T10:50:23.607Z,4.47
2019-04-04T10:52:53.133Z,4.50
2019-04-04T10:55:22.877Z,4.28
2019-04-04T10:57:52.377Z,4.15
2019-04-04T11:00:22.259Z,4.90
2019-04-04T11:02:51.800Z,4.80
2019-04-04T11:05:21.249Z,4.42
2019-04-04T11:07:50.745Z,4.72
2019-04-04T11:10:20.235Z,4.97
2019-04-04T11:12:49.681Z,4.60
2019-04-04T11:15:19.176Z,4.83
2019-04-04T11:17:48.653Z,4.50
2019-04-04T11:20:18.103Z,4.40
2019-04-04T11:22:47.669Z,4.95
2019-04-04T11:25:17.238Z,4.75
2019-04-04T11:27:46.714Z,4.40
2019-04-04T11:30:16.664Z,4.65
2019-04-04T11:32:48.787Z,4.70
2019-04-04T11:35:17.304Z,5.17
2019-04-04T11:37:46.843Z,4.55
2019-04-04T11:40:16.407Z,4.87
2019-04-04T11:42:45.886Z,4.97
2019-04-04T11:45:15.785Z,4.62
2019-04-04T11:47:45.208Z,4.75
2019-04-04T11:50:16.882Z,5.00
2019-04-04T11:52:46.428Z,5.05
2019-04-04T11:55:15.951Z,4.60
2019-04-04T11:57:45.423Z,4.65
2019-04-04T12:00:20.192Z,4.72
2019-04-04T12:02:51.933Z,4.72
2019-04-04T12:05:21.411Z,4.75
2019-04-04T12:07:50.991Z,4.95
2019-04-04T12:10:20.623Z,4.67
2019-04-04T12:12:50.117Z,5.17
2019-04-04T12:15:19.694Z,5.30
2019-04-04T12:17:49.180Z,5.00
2019-04-04T12:20:18.919Z,4.78
2019-04-04T12:22:48.425Z,4.40
2019-04-04T12:25:17.909Z,4.70
2019-04-04T12:27:47.364Z,4.72
2019-04-04T12:30:17.159Z,4.90
2019-04-04T12:32:46.790Z,4.75
2019-04-04T12:35:16.253Z,5.05
2019-04-04T12:37:45.864Z,4.95
2019-04-04T12:40:20.826Z,4.55
2019-04-04T12:42:46.613Z,4.95
2019-04-04T12:45:16.287Z,4.17
2019-04-04T12:47:45.853Z,4.60
2019-04-04T12:50:15.774Z,5.47
2019-04-04T12:52:45.231Z,4.85
2019-04-04T12:55:14.695Z,4.53
2019-04-04T12:57:44.325Z,4.75
2019-04-04T13:00:14.086Z,4.92
2019-04-04T13:02:43.734Z,4.78
2019-04-04T13:05:13.438Z,5.28
2019-04-04T13:07:42.912Z,4.90
2019-04-04T13:10:12.776Z,4.70
2019-04-04T13:12:42.309Z,4.95
2019-04-04T13:15:12.329Z,4.40
2019-04-04T13:17:41.759Z,5.28
2019-04-04T13:20:11.482Z,4.87
2019-04-04T13:22:40.945Z,4.80
2019-04-04T13:25:13.306Z,4.92
2019-04-04T13:27:42.825Z,4.85
2019-04-04T13:30:13.126Z,5.10
2019-04-04T13:32:42.685Z,4.83
2019-04-04T13:35:12.479Z,4.67
2019-04-04T13:37:41.946Z,4.87
2019-04-04T13:40:11.942Z,5.10
2019-04-04T13:42:41.501Z,4.90
2019-04-04T13:45:11.227Z,4.92
2019-04-04T13:47:40.675Z,4.42
2019-04-04T13:50:12.490Z,5.08
2019-04-04T13:52:41.919Z,4.87
2019-04-04T13:55:11.391Z,4.50
2019-04-04T13:57:40.867Z,4.95
2019-04-04T14:00:11.060Z,4.50
2019-04-04T14:02:40.607Z,4.72
2019-04-04T14:05:14.045Z,4.78
2019-04-04T14:07:43.648Z,4.37
2019-04-04T14:10:12.995Z,5.25
2019-04-04T14:12:44.153Z,4.62
2019-04-04T14:15:13.916Z,4.90
2019-04-04T14:17:44.167Z,4.83
2019-04-04T14:20:13.832Z,4.55
2019-04-04T14:22:43.396Z,5.12
2019-04-04T14:25:12.869Z,4.20
2019-04-04T14:27:42.339Z,4.58
2019-04-04T14:30:12.261Z,4.62
2019-04-04T14:32:42.392Z,4.92
2019-04-04T14:35:12.630Z,4.50
2019-04-04T14:37:42.160Z,4.55
2019-04-04T14:40:13.239Z,4.53
2019-04-04T14:42:42.779Z,4.87
2019-04-04T14:45:13.252Z,4.67
2019-04-04T14:47:42.763Z,4.50
2019-04-04T14:50:12.670Z,4.75
2019-04-04T14:52:42.201Z,5.17
2019-04-04T14:55:11.950Z,4.30
2019-04-04T14:57:41.415Z,4.60
2019-04-04T15:00:15.614Z,5.10
2019-04-04T15:02:43.956Z,5.05
2019-04-04T15:05:13.544Z,4.42
2019-04-04T15:07:43.116Z,4.97
2019-04-04T15:10:13.301Z,4.95
2019-04-04T15:12:42.852Z,4.90
2019-04-04T15:15:12.476Z,4.70
2019-04-04T15:17:42.065Z,5.40
2019-04-04T15:20:11.719Z,5.70
2019-04-04T15:22:41.296Z,4.80
2019-04-04T15:25:10.931Z,5.08
2019-04-04T15:27:40.513Z,4.20
2019-04-04T15:30:10.693Z,5.10
2019-04-04T15:32:40.299Z,5.90
2019-04-04T15:35:10.148Z,5.20
2019-04-04T15:37:39.641Z,5.22
2019-04-04T15:40:09.937Z,4.85
2019-04-04T15:42:39.436Z,5.03
2019-04-04T15:45:10.197Z,5.10
2019-04-04T15:47:40.511Z,5.17
2019-04-04T15:50:10.351Z,5.80
2019-04-04T15:52:39.827Z,4.50
2019-04-04T15:55:09.358Z,4.85
2019-04-04T15:57:39.077Z,4.83
2019-04-04T16:00:10.279Z,4.95
2019-04-04T16:02:39.755Z,4.60
2019-04-04T16:05:09.567Z,4.83
2019-04-04T16:07:39.156Z,5.47
2019-04-04T16:10:09.661Z,4.87
2019-04-04T16:12:39.252Z,4.97
2019-04-04T16:15:08.953Z,5.15
2019-04-04T16:17:38.443Z,5.40
2019-04-04T16:20:08.991Z,4.65
2019-04-04T16:22:38.464Z,4.97
2019-04-04T16:25:08.746Z,5.22
2019-04-04T16:27:38.399Z,5.12
2019-04-04T16:30:08.566Z,4.78
2019-04-04T16:32:38.149Z,5.08
2019-04-04T16:35:07.784Z,4.80
2019-04-04T16:37:37.347Z,4.87
2019-04-04T16:40:09.459Z,4.55
2019-04-04T16:42:39.325Z,4.12
2019-04-04T16:45:08.950Z,4.90
2019-04-04T16:47:38.482Z,4.92
2019-04-04T16:50:08.812Z,4.75
2019-04-04T16:52:38.292Z,4.65
2019-04-04T16:55:09.427Z,5.20
2019-04-04T16:57:38.970Z,5.58
2019-04-04T17:00:09.811Z,4.78
2019-04-04T17:02:39.395Z,5.08
2019-04-04T17:05:11.112Z,4.53
2019-04-04T17:07:41.050Z,5.58
2019-04-04T17:10:11.091Z,5.35
2019-04-04T17:12:40.665Z,6.28
2019-04-04T17:15:11.209Z,5.75
2019-04-04T17:17:40.819Z,5.72
2019-04-04T17:20:12.725Z,5.20
2019-04-04T17:22:42.313Z,6.17
2019-04-04T17:25:12.141Z,6.17
2019-04-04T17:27:41.766Z,5.50
2019-04-04T17:30:11.719Z,5.67
2019-04-04T17:32:41.224Z,5.30
2019-04-04T17:35:11.167Z,5.90
2019-04-04T17:37:40.660Z,5.00
2019-04-04T17:40:11.027Z,5.70
2019-04-04T17:42:40.873Z,5.62
2019-04-04T17:45:11.485Z,6.10
2019-04-04T17:47:41.168Z,6.17
2019-04-04T17:50:11.978Z,6.42
2019-04-04T17:52:41.547Z,5.45
2019-04-04T17:55:11.354Z,6.17
2019-04-04T17:57:41.103Z,6.28
2019-04-04T18:00:12.850Z,5.90
2019-04-04T18:02:42.352Z,5.70
2019-04-04T18:05:12.236Z,5.72
2019-04-04T18:07:41.890Z,6.53
2019-04-04T18:10:12.014Z,6.25
2019-04-04T18:12:41.486Z,5.90
2019-04-04T18:15:11.631Z,5.78
2019-04-04T18:17:41.178Z,5.83
2019-04-04T18:20:11.343Z,6.58
2019-04-04T18:22:40.957Z,6.33
2019-04-04T18:25:10.895Z,6.17
2019-04-04T18:27:42.629Z,5.60
2019-04-04T18:30:12.350Z,6.20
2019-04-04T18:32:41.981Z,6.47
2019-04-04T18:35:11.706Z,6.08
2019-04-04T18:37:41.558Z,7.40
2019-04-04T18:40:11.551Z,5.40
2019-04-04T18:42:52.561Z,6.00
2019-04-04T18:45:12.657Z,6.05
2019-04-04T18:47:42.296Z,5.70
2019-04-04T18:50:12.258Z,6.45
2019-04-04T18:52:43.545Z,6.25
2019-04-04T18:55:20.083Z,5.87
2019-04-04T18:57:46.216Z,6.58
2019-04-04T19:00:16.444Z,8.10
2019-04-04T19:02:47.326Z,8.55
2019-04-04T19:05:17.031Z,9.88
2019-04-04T19:07:46.721Z,9.98
2019-04-04T19:10:16.589Z,10.58
2019-04-04T19:12:46.128Z,9.30
2019-04-04T19:15:16.772Z,10.25
2019-04-04T19:17:46.339Z,8.40
2019-04-04T19:20:16.145Z,9.15
2019-04-04T19:22:47.212Z,8.58
2019-04-04T19:25:17.080Z,8.73
2019-04-04T19:27:46.861Z,7.95
2019-04-04T19:30:17.528Z,8.58
2019-04-04T19:32:47.151Z,8.58
2019-04-04T19:35:17.928Z,7.37
2019-04-04T19:37:59.535Z,7.70
2019-04-04T19:40:19.449Z,8.30
2019-04-04T19:42:49.277Z,8.00
2019-04-04T19:45:21.285Z,8.08
2019-04-04T19:47:50.887Z,8.70
2019-04-04T19:50:20.546Z,8.55
2019-04-04T19:52:50.673Z,8.05
2019-04-04T19:55:20.667Z,8.93
2019-04-04T19:57:50.364Z,9.83
2019-04-04T20:00:20.195Z,10.48
2019-04-04T20:02:49.861Z,9.25
2019-04-04T20:05:19.543Z,10.05
2019-04-04T20:07:49.127Z,10.20
2019-04-04T20:10:18.775Z,9.90
2019-04-04T20:12:48.354Z,9.78
2019-04-04T20:15:18.065Z,8.78
2019-04-04T20:17:47.647Z,9.08
2019-04-04T20:20:17.414Z,7.87
2019-04-04T20:22:47.060Z,8.98
2019-04-04T20:25:16.635Z,9.55
2019-04-04T20:27:54.627Z,8.73
2019-04-04T20:30:19.044Z,9.23
2019-04-04T20:32:48.632Z,9.50
2019-04-04T20:35:18.151Z,9.43
2019-04-04T20:37:47.766Z,8.38
2019-04-04T20:40:17.294Z,12.88
2019-04-04T20:42:47.317Z,11.25
2019-04-04T20:45:16.935Z,10.48
2019-04-04T20:47:47.147Z,9.50
2019-04-04T20:50:16.651Z,8.88
2019-04-04T20:52:46.190Z,8.73
2019-04-04T20:55:15.997Z,8.38
2019-04-04T20:57:45.541Z,8.40
2019-04-04T21:00:15.159Z,8.13
2019-04-04T21:02:44.860Z,8.40
2019-04-04T21:05:14.359Z,7.53
2019-04-04T21:07:43.919Z,8.00
2019-04-04T21:10:13.733Z,8.43
2019-04-04T21:12:43.668Z,7.62
2019-04-04T21:15:13.803Z,8.25
2019-04-04T21:17:43.340Z,7.75
2019-04-04T21:20:12.926Z,7.37
2019-04-04T21:22:42.541Z,7.75
2019-04-04T21:25:12.385Z,7.33
2019-04-04T21:27:41.944Z,7.67
2019-04-04T21:30:11.537Z,7.45
2019-04-04T21:32:41.169Z,7.70
2019-04-04T21:35:10.752Z,7.80
2019-04-04T21:37:40.239Z,6.75
2019-04-04T21:40:09.840Z,7.65
2019-04-04T21:42:39.425Z,7.12
2019-04-04T21:45:09.193Z,7.65
2019-04-04T21:47:38.649Z,8.13
2019-04-04T21:50:08.669Z,6.83
2019-04-04T21:52:38.268Z,7.22
2019-04-04T21:55:08.541Z,7.55
2019-04-04T21:57:38.083Z,6.87
2019-04-04T22:00:08.931Z,7.55
2019-04-04T22:02:38.421Z,6.92
2019-04-04T22:05:08.469Z,7.33
2019-04-04T22:07:38.015Z,6.92
2019-04-04T22:10:08.204Z,7.47
2019-04-04T22:12:37.680Z,7.17
2019-04-04T22:15:07.550Z,7.12
2019-04-04T22:17:37.120Z,7.22
2019-04-04T22:20:07.838Z,6.95
2019-04-04T22:22:37.522Z,7.00
2019-04-04T22:25:07.580Z,6.97
2019-04-04T22:27:37.275Z,6.70
2019-04-04T22:30:08.546Z,7.30
2019-04-04T22:32:38.025Z,7.33
2019-04-04T22:35:07.871Z,6.70
2019-04-04T22:37:37.539Z,6.83
2019-04-04T22:40:07.409Z,6.70
2019-04-04T22:42:36.968Z,7.22
2019-04-04T22:45:06.991Z,7.25
2019-04-04T22:47:36.618Z,6.72
2019-04-04T22:50:06.581Z,7.37
2019-04-04T22:52:36.080Z,6.40
2019-04-04T22:55:06.200Z,6.78
2019-04-04T22:57:35.914Z,7.00
2019-04-04T23:00:07.957Z,6.85
2019-04-04T23:02:37.681Z,6.30
2019-04-04T23:05:07.561Z,5.65
2019-04-04T23:07:37.016Z,6.60
2019-04-04T23:10:07.142Z,6.72
2019-04-04T23:12:36.720Z,5.70
2019-04-04T23:15:07.535Z,6.30
2019-04-04T23:17:37.060Z,6.35
2019-04-04T23:20:05.793Z,5.42
2019-04-04T23:22:34.027Z,5.42
2019-04-04T23:25:03.581Z,6.85
2019-04-04T23:27:33.239Z,6.28
2019-04-04T23:30:02.816Z,5.85
2019-04-04T23:32:32.286Z,6.28
2019-04-04T23:35:01.808Z,5.87
2019-04-04T23:37:31.360Z,5.75
2019-04-04T23:40:00.835Z,5.50
2019-04-04T23:42:30.307Z,5.72
2019-04-04T23:45:01.272Z,4.87
2019-04-04T23:47:41.955Z,5.92
2019-04-04T23:50:02.409Z,5.97
2019-04-04T23:52:32.001Z,5.55
2019-04-04T23:55:01.470Z,5.08
2019-04-04T23:57:30.941Z,5.28
